sensor_id;sensor_type;location;lat;lon;timestamp;P1;durP1;ratioP1;P2;durP2;ratioP2
39454;SDS011;25155;41.890;23.446;2024-02-28T00:00:11;8.85;;;5.35;;
39454;SDS011;25155;41.890;23.446;2024-02-28T00:02:39;8.45;;;4.55;;
39454;SDS011;25155;41.890;23.446;2024-02-28T00:05:06;8.13;;;5.45;;
39454;SDS011;25155;41.890;23.446;2024-02-28T00:07:36;6.68;;;4.20;;
39454;SDS011;25155;41.890;23.446;2024-02-28T00:10:03;9.05;;;4.90;;
39454;SDS011;25155;41.890;23.446;2024-02-28T00:12:31;9.32;;;5.63;;
39454;SDS011;25155;41.890;23.446;2024-02-28T00:14:59;7.10;;;4.82;;
39454;SDS011;25155;41.890;23.446;2024-02-28T00:17:27;6.63;;;4.03;;
39454;SDS011;25155;41.890;23.446;2024-02-28T00:19:54;8.68;;;4.50;;
39454;SDS011;25155;41.890;23.446;2024-02-28T00:22:21;6.15;;;4.00;;
39454;SDS011;25155;41.890;23.446;2024-02-28T00:24:50;7.47;;;4.72;;
39454;SDS011;25155;41.890;23.446;2024-02-28T00:27:17;7.55;;;4.32;;
39454;SDS011;25155;41.890;23.446;2024-02-28T00:29:44;6.68;;;3.97;;
39454;SDS011;25155;41.890;23.446;2024-02-28T00:32:12;6.60;;;4.20;;
39454;SDS011;25155;41.890;23.446;2024-02-28T00:34:39;6.63;;;4.20;;
39454;SDS011;25155;41.890;23.446;2024-02-28T00:37:06;6.50;;;4.22;;
39454;SDS011;25155;41.890;23.446;2024-02-28T00:39:33;7.82;;;4.30;;
39454;SDS011;25155;41.890;23.446;2024-02-28T00:42:02;7.05;;;4.40;;
39454;SDS011;25155;41.890;23.446;2024-02-28T00:44:29;8.35;;;5.20;;
39454;SDS011;25155;41.890;23.446;2024-02-28T00:46:56;7.47;;;4.30;;
39454;SDS011;25155;41.890;23.446;2024-02-28T00:49:24;6.28;;;4.00;;
39454;SDS011;25155;41.890;23.446;2024-02-28T00:51:51;6.65;;;3.83;;
39454;SDS011;25155;41.890;23.446;2024-02-28T00:54:18;7.60;;;4.75;;
39454;SDS011;25155;41.890;23.446;2024-02-28T00:56:47;7.57;;;5.05;;
39454;SDS011;25155;41.890;23.446;2024-02-28T00:59:15;6.25;;;4.25;;
39454;SDS011;25155;41.890;23.446;2024-02-28T01:01:42;8.63;;;5.57;;
39454;SDS011;25155;41.890;23.446;2024-02-28T01:04:10;7.32;;;4.55;;
39454;SDS011;25155;41.890;23.446;2024-02-28T01:06:38;8.07;;;4.72;;
39454;SDS011;25155;41.890;23.446;2024-02-28T01:09:05;10.77;;;5.70;;
39454;SDS011;25155;41.890;23.446;2024-02-28T01:11:32;8.27;;;5.68;;
39454;SDS011;25155;41.890;23.446;2024-02-28T01:13:59;8.20;;;5.15;;
39454;SDS011;25155;41.890;23.446;2024-02-28T01:16:28;8.13;;;5.40;;
39454;SDS011;25155;41.890;23.446;2024-02-28T01:18:55;8.70;;;5.45;;
39454;SDS011;25155;41.890;23.446;2024-02-28T01:21:23;8.20;;;4.90;;
39454;SDS011;25155;41.890;23.446;2024-02-28T01:23:50;7.60;;;5.15;;
39454;SDS011;25155;41.890;23.446;2024-02-28T01:26:18;8.63;;;5.63;;
39454;SDS011;25155;41.890;23.446;2024-02-28T01:28:47;7.93;;;5.30;;
39454;SDS011;25155;41.890;23.446;2024-02-28T01:31:15;6.95;;;4.65;;
39454;SDS011;25155;41.890;23.446;2024-02-28T01:33:44;7.10;;;4.50;;
39454;SDS011;25155;41.890;23.446;2024-02-28T01:36:11;6.82;;;4.50;;
39454;SDS011;25155;41.890;23.446;2024-02-28T01:38:38;6.55;;;4.20;;
39454;SDS011;25155;41.890;23.446;2024-02-28T01:41:06;5.65;;;3.50;;
39454;SDS011;25155;41.890;23.446;2024-02-28T01:43:33;5.85;;;3.63;;
39454;SDS011;25155;41.890;23.446;2024-02-28T01:46:01;7.15;;;4.80;;
39454;SDS011;25155;41.890;23.446;2024-02-28T01:48:33;6.50;;;4.13;;
39454;SDS011;25155;41.890;23.446;2024-02-28T01:51:02;5.90;;;3.75;;
39454;SDS011;25155;41.890;23.446;2024-02-28T01:53:30;7.97;;;4.18;;
39454;SDS011;25155;41.890;23.446;2024-02-28T01:55:57;7.57;;;4.70;;
39454;SDS011;25155;41.890;23.446;2024-02-28T01:58:25;6.13;;;4.00;;
39454;SDS011;25155;41.890;23.446;2024-02-28T02:00:52;7.05;;;4.30;;
39454;SDS011;25155;41.890;23.446;2024-02-28T02:03:20;6.72;;;4.38;;
39454;SDS011;25155;41.890;23.446;2024-02-28T02:05:48;6.93;;;4.40;;
39454;SDS011;25155;41.890;23.446;2024-02-28T02:08:16;6.40;;;4.00;;
39454;SDS011;25155;41.890;23.446;2024-02-28T02:10:44;5.57;;;3.65;;
39454;SDS011;25155;41.890;23.446;2024-02-28T02:13:11;5.50;;;3.55;;
39454;SDS011;25155;41.890;23.446;2024-02-28T02:15:38;5.82;;;3.55;;
39454;SDS011;25155;41.890;23.446;2024-02-28T02:18:06;5.20;;;3.33;;
39454;SDS011;25155;41.890;23.446;2024-02-28T02:20:34;7.95;;;4.43;;
39454;SDS011;25155;41.890;23.446;2024-02-28T02:23:08;9.65;;;6.10;;
39454;SDS011;25155;41.890;23.446;2024-02-28T02:25:42;8.07;;;5.20;;
39454;SDS011;25155;41.890;23.446;2024-02-28T02:28:11;6.65;;;4.35;;
39454;SDS011;25155;41.890;23.446;2024-02-28T02:30:38;7.93;;;4.20;;
39454;SDS011;25155;41.890;23.446;2024-02-28T02:33:07;5.60;;;3.88;;
39454;SDS011;25155;41.890;23.446;2024-02-28T02:35:34;7.13;;;4.90;;
39454;SDS011;25155;41.890;23.446;2024-02-28T02:38:02;9.60;;;5.78;;
39454;SDS011;25155;41.890;23.446;2024-02-28T02:40:31;6.68;;;4.75;;
39454;SDS011;25155;41.890;23.446;2024-02-28T02:42:58;7.32;;;5.05;;
39454;SDS011;25155;41.890;23.446;2024-02-28T02:45:25;5.90;;;4.18;;
39454;SDS011;25155;41.890;23.446;2024-02-28T02:47:52;7.10;;;4.30;;
39454;SDS011;25155;41.890;23.446;2024-02-28T02:50:20;5.85;;;3.60;;
39454;SDS011;25155;41.890;23.446;2024-02-28T02:52:47;8.60;;;4.88;;
39454;SDS011;25155;41.890;23.446;2024-02-28T02:55:15;7.07;;;4.40;;
39454;SDS011;25155;41.890;23.446;2024-02-28T02:57:43;6.72;;;4.13;;
39454;SDS011;25155;41.890;23.446;2024-02-28T03:00:12;6.43;;;3.67;;
39454;SDS011;25155;41.890;23.446;2024-02-28T03:02:39;6.35;;;4.30;;
39454;SDS011;25155;41.890;23.446;2024-02-28T03:05:07;6.47;;;3.67;;
39454;SDS011;25155;41.890;23.446;2024-02-28T03:07:35;5.32;;;3.45;;
39454;SDS011;25155;41.890;23.446;2024-02-28T03:10:02;5.60;;;3.60;;
39454;SDS011;25155;41.890;23.446;2024-02-28T03:12:30;5.95;;;3.58;;
39454;SDS011;25155;41.890;23.446;2024-02-28T03:14:58;7.28;;;5.25;;
39454;SDS011;25155;41.890;23.446;2024-02-28T03:17:26;6.95;;;4.38;;
39454;SDS011;25155;41.890;23.446;2024-02-28T03:19:54;7.60;;;4.55;;
39454;SDS011;25155;41.890;23.446;2024-02-28T03:22:21;5.43;;;3.60;;
39454;SDS011;25155;41.890;23.446;2024-02-28T03:24:49;6.20;;;3.85;;
39454;SDS011;25155;41.890;23.446;2024-02-28T03:27:16;5.90;;;3.70;;
39454;SDS011;25155;41.890;23.446;2024-02-28T03:29:43;5.35;;;3.60;;
39454;SDS011;25155;41.890;23.446;2024-02-28T03:32:12;7.18;;;4.68;;
39454;SDS011;25155;41.890;23.446;2024-02-28T03:34:39;7.13;;;4.57;;
39454;SDS011;25155;41.890;23.446;2024-02-28T03:37:07;6.30;;;4.10;;
39454;SDS011;25155;41.890;23.446;2024-02-28T03:39:34;7.45;;;4.60;;
39454;SDS011;25155;41.890;23.446;2024-02-28T03:42:01;6.15;;;3.97;;
39454;SDS011;25155;41.890;23.446;2024-02-28T03:44:28;6.35;;;4.15;;
39454;SDS011;25155;41.890;23.446;2024-02-28T03:46:55;6.72;;;4.45;;
39454;SDS011;25155;41.890;23.446;2024-02-28T03:49:24;8.50;;;4.63;;
39454;SDS011;25155;41.890;23.446;2024-02-28T03:51:51;6.78;;;4.05;;
39454;SDS011;25155;41.890;23.446;2024-02-28T03:54:18;5.90;;;4.00;;
39454;SDS011;25155;41.890;23.446;2024-02-28T03:56:45;7.22;;;3.90;;
39454;SDS011;25155;41.890;23.446;2024-02-28T03:59:12;6.85;;;3.97;;
39454;SDS011;25155;41.890;23.446;2024-02-28T04:01:39;5.65;;;3.80;;
39454;SDS011;25155;41.890;23.446;2024-02-28T04:04:07;5.22;;;3.30;;
39454;SDS011;25155;41.890;23.446;2024-02-28T04:06:35;5.30;;;3.40;;
39454;SDS011;25155;41.890;23.446;2024-02-28T04:09:03;4.65;;;3.00;;
39454;SDS011;25155;41.890;23.446;2024-02-28T04:11:30;4.40;;;2.80;;
39454;SDS011;25155;41.890;23.446;2024-02-28T04:13:58;4.72;;;3.00;;
39454;SDS011;25155;41.890;23.446;2024-02-28T04:16:25;5.05;;;3.45;;
39454;SDS011;25155;41.890;23.446;2024-02-28T04:18:52;4.90;;;3.38;;
39454;SDS011;25155;41.890;23.446;2024-02-28T04:21:20;5.93;;;3.50;;
39454;SDS011;25155;41.890;23.446;2024-02-28T04:23:48;6.55;;;3.90;;
39454;SDS011;25155;41.890;23.446;2024-02-28T04:26:16;7.53;;;4.55;;
39454;SDS011;25155;41.890;23.446;2024-02-28T04:28:43;10.25;;;6.57;;
39454;SDS011;25155;41.890;23.446;2024-02-28T04:31:11;14.32;;;8.82;;
39454;SDS011;25155;41.890;23.446;2024-02-28T04:33:38;11.73;;;7.82;;
39454;SDS011;25155;41.890;23.446;2024-02-28T04:36:05;10.80;;;6.40;;
39454;SDS011;25155;41.890;23.446;2024-02-28T04:38:33;8.88;;;5.65;;
39454;SDS011;25155;41.890;23.446;2024-02-28T04:41:02;9.95;;;5.30;;
39454;SDS011;25155;41.890;23.446;2024-02-28T04:43:30;11.02;;;6.85;;
39454;SDS011;25155;41.890;23.446;2024-02-28T04:45:57;8.95;;;5.97;;
39454;SDS011;25155;41.890;23.446;2024-02-28T04:48:24;7.85;;;5.50;;
39454;SDS011;25155;41.890;23.446;2024-02-28T04:50:52;8.20;;;5.43;;
39454;SDS011;25155;41.890;23.446;2024-02-28T04:53:19;8.55;;;5.22;;
39454;SDS011;25155;41.890;23.446;2024-02-28T04:55:46;7.05;;;4.70;;
39454;SDS011;25155;41.890;23.446;2024-02-28T04:58:15;8.10;;;5.72;;
39454;SDS011;25155;41.890;23.446;2024-02-28T05:00:42;8.68;;;5.70;;
39454;SDS011;25155;41.890;23.446;2024-02-28T05:03:09;10.77;;;7.30;;
39454;SDS011;25155;41.890;23.446;2024-02-28T05:05:36;10.27;;;6.15;;
39454;SDS011;25155;41.890;23.446;2024-02-28T05:08:03;8.90;;;5.65;;
39454;SDS011;25155;41.890;23.446;2024-02-28T05:10:31;7.60;;;5.18;;
39454;SDS011;25155;41.890;23.446;2024-02-28T05:13:00;7.60;;;4.70;;
39454;SDS011;25155;41.890;23.446;2024-02-28T05:15:30;7.28;;;4.63;;
39454;SDS011;25155;41.890;23.446;2024-02-28T05:17:58;7.72;;;4.85;;
39454;SDS011;25155;41.890;23.446;2024-02-28T05:20:26;8.07;;;5.15;;
39454;SDS011;25155;41.890;23.446;2024-02-28T05:22:53;7.88;;;5.28;;
39454;SDS011;25155;41.890;23.446;2024-02-28T05:25:21;7.57;;;5.43;;
39454;SDS011;25155;41.890;23.446;2024-02-28T05:27:49;8.20;;;5.57;;
39454;SDS011;25155;41.890;23.446;2024-02-28T05:30:16;8.52;;;5.80;;
39454;SDS011;25155;41.890;23.446;2024-02-28T05:32:46;8.65;;;5.97;;
39454;SDS011;25155;41.890;23.446;2024-02-28T05:35:14;9.05;;;5.88;;
39454;SDS011;25155;41.890;23.446;2024-02-28T05:37:41;8.85;;;5.78;;
39454;SDS011;25155;41.890;23.446;2024-02-28T05:40:08;11.88;;;7.90;;
39454;SDS011;25155;41.890;23.446;2024-02-28T05:42:38;11.35;;;7.03;;
39454;SDS011;25155;41.890;23.446;2024-02-28T05:45:05;10.20;;;6.85;;
39454;SDS011;25155;41.890;23.446;2024-02-28T05:47:36;11.55;;;7.57;;
39454;SDS011;25155;41.890;23.446;2024-02-28T05:50:05;10.07;;;6.85;;
39454;SDS011;25155;41.890;23.446;2024-02-28T05:52:34;9.25;;;6.30;;
39454;SDS011;25155;41.890;23.446;2024-02-28T05:55:01;7.28;;;5.55;;
39454;SDS011;25155;41.890;23.446;2024-02-28T05:57:29;8.52;;;5.32;;
39454;SDS011;25155;41.890;23.446;2024-02-28T05:59:56;11.90;;;7.60;;
39454;SDS011;25155;41.890;23.446;2024-02-28T06:02:24;10.57;;;6.20;;
39454;SDS011;25155;41.890;23.446;2024-02-28T06:04:52;11.32;;;6.97;;
39454;SDS011;25155;41.890;23.446;2024-02-28T06:07:21;10.23;;;5.82;;
39454;SDS011;25155;41.890;23.446;2024-02-28T06:09:49;7.82;;;5.60;;
39454;SDS011;25155;41.890;23.446;2024-02-28T06:12:17;15.43;;;10.05;;
39454;SDS011;25155;41.890;23.446;2024-02-28T06:14:45;24.65;;;17.27;;
39454;SDS011;25155;41.890;23.446;2024-02-28T06:17:13;37.83;;;26.27;;
39454;SDS011;25155;41.890;23.446;2024-02-28T06:19:40;41.33;;;28.05;;
39454;SDS011;25155;41.890;23.446;2024-02-28T06:22:07;39.42;;;27.13;;
39454;SDS011;25155;41.890;23.446;2024-02-28T06:24:36;43.80;;;29.25;;
39454;SDS011;25155;41.890;23.446;2024-02-28T06:27:03;46.97;;;32.75;;
39454;SDS011;25155;41.890;23.446;2024-02-28T06:29:31;38.03;;;26.95;;
39454;SDS011;25155;41.890;23.446;2024-02-28T06:32:02;48.42;;;32.47;;
39454;SDS011;25155;41.890;23.446;2024-02-28T06:34:29;56.67;;;37.58;;
39454;SDS011;25155;41.890;23.446;2024-02-28T06:36:56;65.35;;;40.60;;
39454;SDS011;25155;41.890;23.446;2024-02-28T06:39:23;56.38;;;37.38;;
39454;SDS011;25155;41.890;23.446;2024-02-28T06:41:52;48.83;;;33.97;;
39454;SDS011;25155;41.890;23.446;2024-02-28T06:44:22;43.83;;;30.17;;
39454;SDS011;25155;41.890;23.446;2024-02-28T06:46:49;40.67;;;29.67;;
39454;SDS011;25155;41.890;23.446;2024-02-28T06:49:16;40.28;;;29.05;;
39454;SDS011;25155;41.890;23.446;2024-02-28T06:51:43;40.60;;;28.42;;
39454;SDS011;25155;41.890;23.446;2024-02-28T06:54:10;39.97;;;27.83;;
39454;SDS011;25155;41.890;23.446;2024-02-28T06:56:38;41.30;;;28.83;;
39454;SDS011;25155;41.890;23.446;2024-02-28T06:59:06;33.05;;;24.77;;
39454;SDS011;25155;41.890;23.446;2024-02-28T07:01:33;33.17;;;23.33;;
39454;SDS011;25155;41.890;23.446;2024-02-28T07:04:01;40.97;;;29.90;;
39454;SDS011;25155;41.890;23.446;2024-02-28T07:06:28;42.67;;;30.73;;
39454;SDS011;25155;41.890;23.446;2024-02-28T07:08:55;36.75;;;26.00;;
39454;SDS011;25155;41.890;23.446;2024-02-28T07:11:22;43.17;;;30.60;;
39454;SDS011;25155;41.890;23.446;2024-02-28T07:13:49;53.58;;;37.25;;
39454;SDS011;25155;41.890;23.446;2024-02-28T07:16:18;55.47;;;38.30;;
39454;SDS011;25155;41.890;23.446;2024-02-28T07:18:45;45.17;;;33.03;;
39454;SDS011;25155;41.890;23.446;2024-02-28T07:21:13;39.65;;;28.73;;
39454;SDS011;25155;41.890;23.446;2024-02-28T07:23:40;35.88;;;24.98;;
39454;SDS011;25155;41.890;23.446;2024-02-28T07:26:07;38.75;;;28.30;;
39454;SDS011;25155;41.890;23.446;2024-02-28T07:28:35;34.50;;;24.90;;
39454;SDS011;25155;41.890;23.446;2024-02-28T07:31:02;40.53;;;28.50;;
39454;SDS011;25155;41.890;23.446;2024-02-28T07:33:31;41.88;;;27.10;;
39454;SDS011;25155;41.890;23.446;2024-02-28T07:35:58;36.67;;;26.20;;
39454;SDS011;25155;41.890;23.446;2024-02-28T07:38:26;36.35;;;26.40;;
39454;SDS011;25155;41.890;23.446;2024-02-28T07:40:54;41.53;;;28.25;;
39454;SDS011;25155;41.890;23.446;2024-02-28T07:43:21;38.20;;;27.98;;
39454;SDS011;25155;41.890;23.446;2024-02-28T07:45:48;42.83;;;24.75;;
39454;SDS011;25155;41.890;23.446;2024-02-28T07:48:15;34.20;;;20.98;;
39454;SDS011;25155;41.890;23.446;2024-02-28T07:50:45;33.75;;;23.50;;
39454;SDS011;25155;41.890;23.446;2024-02-28T07:53:12;35.58;;;23.63;;
39454;SDS011;25155;41.890;23.446;2024-02-28T07:55:40;31.65;;;22.25;;
39454;SDS011;25155;41.890;23.446;2024-02-28T07:58:07;24.40;;;16.42;;
39454;SDS011;25155;41.890;23.446;2024-02-28T08:00:35;22.02;;;15.95;;
39454;SDS011;25155;41.890;23.446;2024-02-28T08:03:02;17.98;;;12.98;;
39454;SDS011;25155;41.890;23.446;2024-02-28T08:05:29;17.15;;;10.80;;
39454;SDS011;25155;41.890;23.446;2024-02-28T08:08:00;15.77;;;12.23;;
39454;SDS011;25155;41.890;23.446;2024-02-28T08:10:28;45.92;;;14.82;;
39454;SDS011;25155;41.890;23.446;2024-02-28T08:12:55;21.23;;;12.75;;
39454;SDS011;25155;41.890;23.446;2024-02-28T08:15:23;16.48;;;10.63;;
39454;SDS011;25155;41.890;23.446;2024-02-28T08:17:50;14.35;;;9.68;;
39454;SDS011;25155;41.890;23.446;2024-02-28T08:20:17;15.75;;;9.50;;
39454;SDS011;25155;41.890;23.446;2024-02-28T08:22:44;22.30;;;12.35;;
39454;SDS011;25155;41.890;23.446;2024-02-28T08:25:12;79.50;;;20.73;;
39454;SDS011;25155;41.890;23.446;2024-02-28T08:27:41;16.55;;;10.30;;
39454;SDS011;25155;41.890;23.446;2024-02-28T08:30:09;15.23;;;10.30;;
39454;SDS011;25155;41.890;23.446;2024-02-28T08:32:36;25.65;;;12.38;;
39454;SDS011;25155;41.890;23.446;2024-02-28T08:35:04;18.95;;;13.25;;
39454;SDS011;25155;41.890;23.446;2024-02-28T08:37:33;35.88;;;16.20;;
39454;SDS011;25155;41.890;23.446;2024-02-28T08:40:00;25.98;;;16.23;;
39454;SDS011;25155;41.890;23.446;2024-02-28T08:42:29;23.63;;;14.13;;
39454;SDS011;25155;41.890;23.446;2024-02-28T08:44:56;19.30;;;13.02;;
39454;SDS011;25155;41.890;23.446;2024-02-28T08:47:25;19.23;;;13.23;;
39454;SDS011;25155;41.890;23.446;2024-02-28T08:49:52;16.27;;;11.10;;
39454;SDS011;25155;41.890;23.446;2024-02-28T08:52:20;16.73;;;11.13;;
39454;SDS011;25155;41.890;23.446;2024-02-28T08:54:48;18.40;;;11.50;;
39454;SDS011;25155;41.890;23.446;2024-02-28T08:57:15;16.42;;;11.73;;
39454;SDS011;25155;41.890;23.446;2024-02-28T08:59:43;20.67;;;12.48;;
39454;SDS011;25155;41.890;23.446;2024-02-28T09:02:10;17.92;;;11.05;;
39454;SDS011;25155;41.890;23.446;2024-02-28T09:04:38;17.23;;;11.38;;
39454;SDS011;25155;41.890;23.446;2024-02-28T09:07:05;20.23;;;12.20;;
39454;SDS011;25155;41.890;23.446;2024-02-28T09:09:32;19.08;;;13.23;;
39454;SDS011;25155;41.890;23.446;2024-02-28T09:12:03;23.95;;;16.95;;
39454;SDS011;25155;41.890;23.446;2024-02-28T09:14:30;18.95;;;13.90;;
39454;SDS011;25155;41.890;23.446;2024-02-28T09:16:59;22.02;;;14.38;;
39454;SDS011;25155;41.890;23.446;2024-02-28T09:19:28;55.38;;;19.17;;
39454;SDS011;25155;41.890;23.446;2024-02-28T09:21:56;19.33;;;12.13;;
39454;SDS011;25155;41.890;23.446;2024-02-28T09:24:23;21.85;;;13.95;;
39454;SDS011;25155;41.890;23.446;2024-02-28T09:26:50;21.42;;;14.25;;
39454;SDS011;25155;41.890;23.446;2024-02-28T09:29:17;48.38;;;18.48;;
39454;SDS011;25155;41.890;23.446;2024-02-28T09:31:44;22.55;;;13.38;;
39454;SDS011;25155;41.890;23.446;2024-02-28T09:34:13;42.20;;;17.38;;
39454;SDS011;25155;41.890;23.446;2024-02-28T09:36:40;19.58;;;13.85;;
39454;SDS011;25155;41.890;23.446;2024-02-28T09:39:10;22.83;;;14.07;;
39454;SDS011;25155;41.890;23.446;2024-02-28T09:41:39;19.38;;;12.43;;
39454;SDS011;25155;41.890;23.446;2024-02-28T09:44:07;20.35;;;13.73;;
39454;SDS011;25155;41.890;23.446;2024-02-28T09:46:34;16.33;;;10.48;;
39454;SDS011;25155;41.890;23.446;2024-02-28T09:49:02;17.08;;;10.15;;
39454;SDS011;25155;41.890;23.446;2024-02-28T09:51:32;15.90;;;10.07;;
39454;SDS011;25155;41.890;23.446;2024-02-28T09:54:00;12.85;;;8.88;;
39454;SDS011;25155;41.890;23.446;2024-02-28T09:56:27;13.70;;;9.25;;
39454;SDS011;25155;41.890;23.446;2024-02-28T09:58:54;15.35;;;8.90;;
39454;SDS011;25155;41.890;23.446;2024-02-28T10:01:22;16.55;;;10.77;;
39454;SDS011;25155;41.890;23.446;2024-02-28T10:03:49;15.82;;;9.88;;
39454;SDS011;25155;41.890;23.446;2024-02-28T10:06:18;14.18;;;9.45;;
39454;SDS011;25155;41.890;23.446;2024-02-28T10:08:47;12.00;;;7.93;;
39454;SDS011;25155;41.890;23.446;2024-02-28T10:11:17;10.32;;;6.10;;
39454;SDS011;25155;41.890;23.446;2024-02-28T10:13:46;8.45;;;4.90;;
39454;SDS011;25155;41.890;23.446;2024-02-28T10:16:13;6.88;;;4.22;;
39454;SDS011;25155;41.890;23.446;2024-02-28T10:18:42;8.13;;;4.53;;
39454;SDS011;25155;41.890;23.446;2024-02-28T10:21:09;7.68;;;4.35;;
39454;SDS011;25155;41.890;23.446;2024-02-28T10:23:37;9.60;;;4.50;;
39454;SDS011;25155;41.890;23.446;2024-02-28T10:26:08;9.18;;;5.47;;
39454;SDS011;25155;41.890;23.446;2024-02-28T10:28:36;8.00;;;4.67;;
39454;SDS011;25155;41.890;23.446;2024-02-28T10:31:03;9.52;;;5.22;;
39454;SDS011;25155;41.890;23.446;2024-02-28T10:33:32;7.38;;;4.65;;
39454;SDS011;25155;41.890;23.446;2024-02-28T10:36:01;7.55;;;4.55;;
39454;SDS011;25155;41.890;23.446;2024-02-28T10:38:30;8.30;;;4.45;;
39454;SDS011;25155;41.890;23.446;2024-02-28T10:40:58;8.18;;;4.97;;
39454;SDS011;25155;41.890;23.446;2024-02-28T10:43:29;7.25;;;4.68;;
39454;SDS011;25155;41.890;23.446;2024-02-28T10:45:57;8.65;;;4.57;;
39454;SDS011;25155;41.890;23.446;2024-02-28T10:48:25;7.68;;;4.90;;
39454;SDS011;25155;41.890;23.446;2024-02-28T10:50:52;7.45;;;4.07;;
39454;SDS011;25155;41.890;23.446;2024-02-28T10:53:21;8.80;;;4.57;;
39454;SDS011;25155;41.890;23.446;2024-02-28T10:55:50;7.43;;;4.22;;
39454;SDS011;25155;41.890;23.446;2024-02-28T10:58:22;6.32;;;3.67;;
39454;SDS011;25155;41.890;23.446;2024-02-28T11:00:53;8.68;;;4.50;;
39454;SDS011;25155;41.890;23.446;2024-02-28T11:03:20;6.82;;;3.90;;
39454;SDS011;25155;41.890;23.446;2024-02-28T11:05:48;8.75;;;4.38;;
39454;SDS011;25155;41.890;23.446;2024-02-28T11:08:20;7.57;;;4.40;;
39454;SDS011;25155;41.890;23.446;2024-02-28T11:10:54;34.88;;;8.15;;
39454;SDS011;25155;41.890;23.446;2024-02-28T11:13:21;9.00;;;4.70;;
39454;SDS011;25155;41.890;23.446;2024-02-28T11:15:49;6.88;;;4.10;;
39454;SDS011;25155;41.890;23.446;2024-02-28T11:18:18;7.75;;;4.63;;
39454;SDS011;25155;41.890;23.446;2024-02-28T11:20:45;7.35;;;4.68;;
39454;SDS011;25155;41.890;23.446;2024-02-28T11:23:14;7.20;;;4.60;;
39454;SDS011;25155;41.890;23.446;2024-02-28T11:25:43;6.88;;;4.03;;
39454;SDS011;25155;41.890;23.446;2024-02-28T11:28:10;7.05;;;4.25;;
39454;SDS011;25155;41.890;23.446;2024-02-28T11:30:37;9.75;;;4.43;;
39454;SDS011;25155;41.890;23.446;2024-02-28T11:33:04;12.63;;;5.05;;
39454;SDS011;25155;41.890;23.446;2024-02-28T11:35:35;7.10;;;4.60;;
39454;SDS011;25155;41.890;23.446;2024-02-28T11:38:03;20.27;;;6.00;;
39454;SDS011;25155;41.890;23.446;2024-02-28T11:40:33;8.73;;;4.72;;
39454;SDS011;25155;41.890;23.446;2024-02-28T11:43:00;7.63;;;4.00;;
39454;SDS011;25155;41.890;23.446;2024-02-28T11:45:29;26.05;;;7.13;;
39454;SDS011;25155;41.890;23.446;2024-02-28T11:47:56;12.07;;;5.10;;
39454;SDS011;25155;41.890;23.446;2024-02-28T11:50:23;14.35;;;4.80;;
39454;SDS011;25155;41.890;23.446;2024-02-28T11:52:53;7.68;;;4.35;;
39454;SDS011;25155;41.890;23.446;2024-02-28T11:55:20;7.78;;;4.70;;
39454;SDS011;25155;41.890;23.446;2024-02-28T11:57:47;54.67;;;10.63;;
39454;SDS011;25155;41.890;23.446;2024-02-28T12:00:16;10.70;;;5.18;;
39454;SDS011;25155;41.890;23.446;2024-02-28T12:02:43;6.70;;;3.80;;
39454;SDS011;25155;41.890;23.446;2024-02-28T12:05:11;5.43;;;3.53;;
39454;SDS011;25155;41.890;23.446;2024-02-28T12:07:38;5.85;;;3.45;;
39454;SDS011;25155;41.890;23.446;2024-02-28T12:10:07;6.72;;;3.92;;
39454;SDS011;25155;41.890;23.446;2024-02-28T12:12:35;8.07;;;4.50;;
39454;SDS011;25155;41.890;23.446;2024-02-28T12:15:03;30.25;;;8.98;;
39454;SDS011;25155;41.890;23.446;2024-02-28T12:17:32;10.38;;;4.75;;
39454;SDS011;25155;41.890;23.446;2024-02-28T12:19:59;7.57;;;4.10;;
39454;SDS011;25155;41.890;23.446;2024-02-28T12:22:27;7.43;;;3.70;;
39454;SDS011;25155;41.890;23.446;2024-02-28T12:24:54;8.05;;;4.10;;
39454;SDS011;25155;41.890;23.446;2024-02-28T12:27:22;8.57;;;4.60;;
39454;SDS011;25155;41.890;23.446;2024-02-28T12:29:49;7.50;;;4.07;;
39454;SDS011;25155;41.890;23.446;2024-02-28T12:32:16;10.93;;;4.50;;
39454;SDS011;25155;41.890;23.446;2024-02-28T12:34:44;9.38;;;4.50;;
39454;SDS011;25155;41.890;23.446;2024-02-28T12:37:11;6.38;;;3.58;;
39454;SDS011;25155;41.890;23.446;2024-02-28T12:39:38;6.28;;;3.58;;
39454;SDS011;25155;41.890;23.446;2024-02-28T12:42:05;4.82;;;2.97;;
39454;SDS011;25155;41.890;23.446;2024-02-28T12:44:35;5.20;;;3.42;;
39454;SDS011;25155;41.890;23.446;2024-02-28T12:47:03;6.35;;;3.65;;
39454;SDS011;25155;41.890;23.446;2024-02-28T12:49:31;13.15;;;4.20;;
39454;SDS011;25155;41.890;23.446;2024-02-28T12:51:58;7.68;;;4.00;;
39454;SDS011;25155;41.890;23.446;2024-02-28T12:54:25;8.55;;;3.65;;
39454;SDS011;25155;41.890;23.446;2024-02-28T12:56:52;5.75;;;3.35;;
39454;SDS011;25155;41.890;23.446;2024-02-28T12:59:19;5.07;;;3.00;;
39454;SDS011;25155;41.890;23.446;2024-02-28T13:01:47;7.55;;;3.63;;
39454;SDS011;25155;41.890;23.446;2024-02-28T13:04:15;6.57;;;3.75;;
39454;SDS011;25155;41.890;23.446;2024-02-28T13:06:42;9.98;;;4.05;;
39454;SDS011;25155;41.890;23.446;2024-02-28T13:09:09;6.10;;;3.65;;
39454;SDS011;25155;41.890;23.446;2024-02-28T13:11:38;6.05;;;2.90;;
39454;SDS011;25155;41.890;23.446;2024-02-28T13:14:06;8.50;;;3.53;;
39454;SDS011;25155;41.890;23.446;2024-02-28T13:16:34;5.82;;;3.05;;
39454;SDS011;25155;41.890;23.446;2024-02-28T13:19:03;5.85;;;3.10;;
39454;SDS011;25155;41.890;23.446;2024-02-28T13:21:30;8.93;;;3.92;;
39454;SDS011;25155;41.890;23.446;2024-02-28T13:23:59;5.13;;;3.17;;
39454;SDS011;25155;41.890;23.446;2024-02-28T13:26:28;8.30;;;3.58;;
39454;SDS011;25155;41.890;23.446;2024-02-28T13:28:55;16.90;;;5.13;;
39454;SDS011;25155;41.890;23.446;2024-02-28T13:31:22;6.05;;;3.08;;
39454;SDS011;25155;41.890;23.446;2024-02-28T13:33:49;5.25;;;3.20;;
39454;SDS011;25155;41.890;23.446;2024-02-28T13:36:18;7.10;;;3.22;;
39454;SDS011;25155;41.890;23.446;2024-02-28T13:38:45;8.85;;;3.50;;
39454;SDS011;25155;41.890;23.446;2024-02-28T13:41:12;109.90;;;21.23;;
39454;SDS011;25155;41.890;23.446;2024-02-28T13:43:40;20.13;;;6.85;;
39454;SDS011;25155;41.890;23.446;2024-02-28T13:46:07;7.97;;;3.80;;
39454;SDS011;25155;41.890;23.446;2024-02-28T13:48:35;7.57;;;3.38;;
39454;SDS011;25155;41.890;23.446;2024-02-28T13:51:02;5.68;;;2.92;;
39454;SDS011;25155;41.890;23.446;2024-02-28T13:53:32;5.88;;;2.85;;
39454;SDS011;25155;41.890;23.446;2024-02-28T13:55:59;5.30;;;2.50;;
39454;SDS011;25155;41.890;23.446;2024-02-28T13:58:26;5.80;;;2.95;;
39454;SDS011;25155;41.890;23.446;2024-02-28T14:00:53;6.63;;;3.47;;
39454;SDS011;25155;41.890;23.446;2024-02-28T14:03:21;5.88;;;3.15;;
39454;SDS011;25155;41.890;23.446;2024-02-28T14:05:48;7.60;;;4.40;;
39454;SDS011;25155;41.890;23.446;2024-02-28T14:08:15;6.15;;;3.78;;
39454;SDS011;25155;41.890;23.446;2024-02-28T14:10:44;5.28;;;3.13;;
39454;SDS011;25155;41.890;23.446;2024-02-28T14:13:12;8.00;;;3.50;;
39454;SDS011;25155;41.890;23.446;2024-02-28T14:15:42;5.63;;;3.08;;
39454;SDS011;25155;41.890;23.446;2024-02-28T14:18:10;7.00;;;3.90;;
39454;SDS011;25155;41.890;23.446;2024-02-28T14:20:37;6.55;;;3.92;;
39454;SDS011;25155;41.890;23.446;2024-02-28T14:23:04;9.10;;;3.95;;
39454;SDS011;25155;41.890;23.446;2024-02-28T14:25:31;7.25;;;3.05;;
39454;SDS011;25155;41.890;23.446;2024-02-28T14:28:00;6.55;;;3.63;;